createdAt,value
2022-10-18T04:39:49.906Z,101570.25
2022-10-18T04:42:19.793Z,101578.66
2022-10-18T04:44:46.879Z,101577.63
2022-10-18T04:47:13.811Z,101568.59
2022-10-18T04:49:41.162Z,101579.44
2022-10-18T04:52:08.179Z,101574.09
2022-10-18T04:54:35.410Z,101586.00
2022-10-18T04:57:02.596Z,101579.84
2022-10-18T04:59:29.693Z,101585.38
2022-10-18T05:01:56.755Z,101588.75
2022-10-18T05:04:24.203Z,101585.91
2022-10-18T05:06:51.128Z,101595.66
2022-10-18T05:09:18.473Z,101597.47
2022-10-18T05:11:46.269Z,101601.47
2022-10-18T05:14:13.448Z,101614.22
2022-10-18T05:16:40.657Z,101601.97
2022-10-18T05:19:07.641Z,101610.31
2022-10-18T05:21:34.680Z,101608.19
2022-10-18T05:24:01.672Z,101615.03
2022-10-18T05:26:29.013Z,101612.63
2022-10-18T05:28:56.055Z,101617.25
2022-10-18T05:31:23.081Z,101621.28
2022-10-18T05:33:50.334Z,101623.03
2022-10-18T05:36:17.456Z,101634.53
2022-10-18T05:38:45.708Z,101645.19
2022-10-18T05:41:12.859Z,101658.31
2022-10-18T05:43:40.593Z,101666.50
2022-10-18T05:46:13.666Z,101661.03
2022-10-18T05:48:40.977Z,101683.22
2022-10-18T05:51:07.988Z,101683.03
2022-10-18T05:53:37.558Z,101682.22
2022-10-18T05:56:06.566Z,101691.47
2022-10-18T05:58:34.072Z,101684.13
2022-10-18T06:01:02.001Z,101692.88
2022-10-18T06:03:30.609Z,101690.06
2022-10-18T06:06:01.353Z,101687.53
2022-10-18T06:08:28.377Z,101687.06
2022-10-18T06:10:55.605Z,101705.13
2022-10-18T06:13:22.660Z,101709.13
2022-10-18T06:15:49.848Z,101724.25
2022-10-18T06:18:16.850Z,101734.56
2022-10-18T06:20:43.998Z,101738.28
2022-10-18T06:23:11.161Z,101742.31
2022-10-18T06:25:38.173Z,101737.16
2022-10-18T06:28:07.832Z,101744.22
2022-10-18T06:30:37.480Z,101749.03
2022-10-18T06:33:04.446Z,101744.63
2022-10-18T06:35:31.490Z,101745.72
2022-10-18T06:37:58.446Z,101752.63
2022-10-18T06:40:25.393Z,101745.28
2022-10-18T06:43:00.200Z,101754.72
2022-10-18T06:45:28.053Z,101743.28
2022-10-18T06:47:55.022Z,101753.22
2022-10-18T06:50:22.004Z,101752.75
2022-10-18T06:52:51.181Z,101765.00
2022-10-18T06:55:18.345Z,101775.63
2022-10-18T06:57:45.370Z,101782.38
2022-10-18T07:00:12.871Z,101786.91
2022-10-18T07:02:41.408Z,101780.22
2022-10-18T07:05:09.311Z,101797.75
2022-10-18T07:07:36.551Z,101801.75
2022-10-18T07:10:05.098Z,101800.03
2022-10-18T07:12:32.891Z,101802.34
2022-10-18T07:14:59.886Z,101815.28
2022-10-18T07:17:27.551Z,101819.56
2022-10-18T07:19:57.510Z,101824.53
2022-10-18T07:22:29.408Z,101824.66
2022-10-18T07:24:57.475Z,101835.31
2022-10-18T07:27:24.458Z,101846.38
2022-10-18T07:29:51.568Z,101855.16
2022-10-18T07:32:18.562Z,101872.75
2022-10-18T07:34:45.520Z,101874.13
2022-10-18T07:37:12.565Z,101878.16
2022-10-18T07:39:39.575Z,101891.22
2022-10-18T07:42:06.576Z,101899.38
2022-10-18T07:44:33.529Z,101899.88
2022-10-18T07:47:00.797Z,101901.19
2022-10-18T07:49:27.778Z,101912.53
2022-10-18T07:51:54.748Z,101916.16
2022-10-18T07:54:22.578Z,101921.97
2022-10-18T07:56:49.588Z,101933.63
2022-10-18T07:59:16.676Z,101950.47
2022-10-18T08:01:43.710Z,101940.28
2022-10-18T08:04:16.114Z,101950.94
2022-10-18T08:06:43.563Z,101951.78
2022-10-18T08:09:10.558Z,101967.41
2022-10-18T08:11:38.596Z,101972.25
2022-10-18T08:14:05.621Z,101978.41
2022-10-18T08:19:04.468Z,101985.66
2022-10-18T08:21:31.711Z,101994.56
2022-10-18T08:23:58.665Z,101992.31
2022-10-18T08:26:25.599Z,101995.03
2022-10-18T08:28:58.299Z,101999.63
2022-10-18T08:31:36.900Z,102004.63
2022-10-18T08:34:03.953Z,102004.00
2022-10-18T08:36:30.894Z,102008.28
2022-10-18T08:38:57.925Z,102010.56
2022-10-18T08:41:33.920Z,102027.69
2022-10-18T08:44:16.089Z,102027.19
2022-10-18T08:46:47.921Z,102021.75
2022-10-18T08:49:32.319Z,102016.31
2022-10-18T08:51:59.535Z,102027.81
2022-10-18T08:55:04.557Z,102046.72
2022-10-18T08:57:33.212Z,102054.56
2022-10-18T09:00:05.230Z,102048.91
2022-10-18T09:02:40.293Z,102054.75
2022-10-18T09:05:34.377Z,102071.59
2022-10-18T09:08:14.275Z,102089.00
2022-10-18T09:10:50.194Z,102096.88
2022-10-18T09:13:38.700Z,102117.41
2022-10-18T09:16:13.022Z,102123.50
2022-10-18T09:19:05.437Z,102119.25
2022-10-18T09:21:42.651Z,102119.50
2022-10-18T09:24:14.904Z,102131.19
2022-10-18T09:26:49.727Z,102138.25
2022-10-18T09:29:47.108Z,102153.06
2022-10-18T09:32:32.720Z,102163.75
2022-10-18T09:35:25.203Z,102163.75
2022-10-18T09:38:03.504Z,102156.69
2022-10-18T09:40:34.915Z,102170.78
2022-10-18T09:43:11.715Z,102166.66
2022-10-18T09:45:43.958Z,102180.56
2022-10-18T09:48:13.870Z,102184.81
2022-10-18T09:50:45.294Z,102176.88
2022-10-18T09:53:27.231Z,102186.31
2022-10-18T09:56:00.651Z,102178.63
2022-10-18T09:58:40.493Z,102168.88
2022-10-18T10:01:08.972Z,102174.75
2022-10-18T10:03:36.097Z,102174.72
2022-10-18T10:06:11.896Z,102167.31
2022-10-18T10:08:49.318Z,102146.53
2022-10-18T10:11:32.018Z,102134.16
2022-10-18T10:14:13.922Z,102132.94
2022-10-18T10:16:59.447Z,102122.84
2022-10-18T10:19:31.303Z,102112.16
2022-10-18T10:22:10.423Z,102126.03
2022-10-18T10:24:46.706Z,102128.66
2022-10-18T10:27:24.605Z,102132.94
2022-10-18T10:29:56.638Z,102149.47
2022-10-18T10:34:55.239Z,102198.66
2022-10-18T10:37:28.452Z,102214.66
2022-10-18T10:40:19.605Z,102227.78
2022-10-18T10:43:09.031Z,102247.16
2022-10-18T10:46:12.945Z,102259.06
2022-10-18T10:48:47.052Z,102286.84
2022-10-18T10:51:17.193Z,102306.81
2022-10-18T10:53:51.143Z,102302.31
2022-10-18T10:56:25.931Z,102298.13
2022-10-18T10:58:54.564Z,102325.47
2022-10-18T11:01:26.406Z,102317.25
2022-10-18T11:03:57.349Z,102322.88
2022-10-18T11:06:33.593Z,102338.00
2022-10-18T11:09:03.525Z,102345.28
2022-10-18T11:11:47.079Z,102354.16
2022-10-18T11:14:27.098Z,102350.63
2022-10-18T11:17:05.575Z,102355.88
2022-10-18T11:19:46.404Z,102354.84
2022-10-18T11:22:20.356Z,102367.38
2022-10-18T11:24:47.857Z,102364.91
2022-10-18T11:27:29.945Z,102367.44
2022-10-18T11:30:12.561Z,102372.00
2022-10-18T11:33:06.946Z,102367.19
2022-10-18T11:35:42.771Z,102360.03
2022-10-18T11:38:34.522Z,102370.47
2022-10-18T11:41:23.818Z,102371.56
2022-10-18T11:44:08.727Z,102362.69
2022-10-18T11:47:00.547Z,102366.13
2022-10-18T11:50:02.603Z,102365.50
2022-10-18T11:52:44.645Z,102374.91
2022-10-18T11:55:31.942Z,102371.84
2022-10-18T11:58:20.093Z,102381.03
2022-10-18T12:01:10.848Z,102384.16
2022-10-18T12:03:47.762Z,102384.63
2022-10-18T12:06:19.383Z,102382.19
2022-10-18T12:08:50.767Z,102379.72
2022-10-18T12:11:34.673Z,102378.22
2022-10-18T12:14:04.853Z,102388.75
2022-10-18T12:17:07.811Z,102380.81
2022-10-18T12:19:27.927Z,102384.66
2022-10-18T12:22:08.942Z,102387.34
2022-10-18T12:24:36.518Z,102385.53
2022-10-18T12:27:04.081Z,102386.81
2022-10-18T12:29:45.320Z,102379.19
2022-10-18T12:32:19.843Z,102389.91
2022-10-18T12:34:50.642Z,102385.19
2022-10-18T12:37:39.500Z,102389.63
2022-10-18T12:40:41.349Z,102394.31
2022-10-18T12:43:10.864Z,102387.25
2022-10-18T12:46:13.083Z,102377.25
2022-10-18T12:48:48.805Z,102373.22
2022-10-18T12:51:19.422Z,102370.09
2022-10-18T12:53:56.854Z,102388.38
2022-10-18T12:56:29.774Z,102374.41
2022-10-18T12:59:15.315Z,102381.88
2022-10-18T13:01:52.035Z,102378.75
2022-10-18T13:04:28.379Z,102380.91
2022-10-18T13:07:02.974Z,102375.69
2022-10-18T13:09:31.460Z,102387.94
2022-10-18T13:12:10.562Z,102395.78
2022-10-18T13:15:05.844Z,102396.66
2022-10-18T13:17:58.694Z,102372.88
2022-10-18T13:21:01.178Z,102371.56
2022-10-18T13:23:54.851Z,102381.31
2022-10-18T13:26:59.175Z,102382.47
2022-10-18T13:29:59.544Z,102362.63
2022-10-18T13:32:44.067Z,102380.69
2022-10-18T13:35:42.685Z,102382.78
2022-10-18T13:38:34.338Z,102388.91
2022-10-18T13:41:13.042Z,102371.00
2022-10-18T13:43:53.045Z,102381.56
2022-10-18T13:46:33.004Z,102382.47
2022-10-18T13:49:20.250Z,102381.47
2022-10-18T13:52:07.500Z,102374.91
2022-10-18T13:54:57.298Z,102352.38
2022-10-18T13:57:36.164Z,102377.69
2022-10-18T14:00:19.226Z,102378.84
2022-10-18T14:02:53.367Z,102372.03
2022-10-18T14:05:31.668Z,102377.59
2022-10-18T14:08:09.517Z,102388.41
2022-10-18T14:11:02.502Z,102380.66
2022-10-18T14:13:47.245Z,102366.88
2022-10-18T14:16:35.107Z,102360.91
2022-10-18T14:19:14.154Z,102360.09
2022-10-18T14:21:48.860Z,102352.38
2022-10-18T14:24:21.386Z,102369.38
2022-10-18T14:26:48.471Z,102379.25
2022-10-18T14:29:20.336Z,102371.19
2022-10-18T14:31:53.323Z,102375.38
2022-10-18T14:34:21.161Z,102367.53
2022-10-18T14:36:49.752Z,102378.56
2022-10-18T14:39:22.269Z,102375.56
2022-10-18T14:41:54.111Z,102390.34
2022-10-18T14:44:25.092Z,102391.72
2022-10-18T14:46:59.367Z,102379.66
2022-10-18T14:49:26.730Z,102371.44
2022-10-18T14:51:56.891Z,102373.13
2022-10-18T14:54:31.603Z,102380.63
2022-10-18T14:57:00.959Z,102382.53
2022-10-18T14:59:30.832Z,102391.53
2022-10-18T15:02:18.077Z,102389.63
2022-10-18T15:04:47.154Z,102378.16
2022-10-18T15:07:16.976Z,102394.47
2022-10-18T15:09:45.550Z,102396.47
2022-10-18T15:12:14.738Z,102390.25
2022-10-18T15:14:43.422Z,102394.28
2022-10-18T15:17:26.280Z,102397.34
2022-10-18T15:19:55.345Z,102402.81
2022-10-18T15:22:31.894Z,102396.88
2022-10-18T15:25:21.036Z,102400.50
2022-10-18T15:27:51.620Z,102393.22
2022-10-18T15:30:36.574Z,102384.53
2022-10-18T15:33:09.702Z,102389.28
2022-10-18T15:35:38.979Z,102396.75
2022-10-18T15:38:20.894Z,102390.72
2022-10-18T15:40:48.076Z,102391.00
2022-10-18T15:43:24.246Z,102387.31
2022-10-18T15:46:06.656Z,102380.50
2022-10-18T15:48:39.871Z,102383.72
2022-10-18T15:51:46.801Z,102381.56
2022-10-18T15:54:29.802Z,102380.31
2022-10-18T15:56:57.078Z,102388.09
2022-10-18T15:59:29.688Z,102388.47
2022-10-18T16:01:56.740Z,102375.34
2022-10-18T16:04:25.915Z,102377.22
2022-10-18T16:06:54.209Z,102376.25
2022-10-18T16:09:24.444Z,102380.53
2022-10-18T16:11:56.425Z,102370.44
2022-10-18T16:14:25.676Z,102381.53
2022-10-18T16:17:03.573Z,102376.44
2022-10-18T16:19:32.344Z,102383.03
2022-10-18T16:22:05.981Z,102381.50
2022-10-18T16:24:33.567Z,102376.75
2022-10-18T16:27:00.552Z,102372.75
2022-10-18T16:29:31.961Z,102376.56
2022-10-18T16:31:59.934Z,102389.47
2022-10-18T16:34:27.460Z,102382.22
2022-10-18T16:36:55.005Z,102383.34
2022-10-18T16:39:22.504Z,102384.09
2022-10-18T16:41:49.889Z,102392.25
2022-10-18T16:44:19.476Z,102392.88
2022-10-18T16:46:50.972Z,102393.06
2022-10-18T16:49:24.386Z,102386.56
2022-10-18T16:51:53.422Z,102392.03
2022-10-18T16:54:21.028Z,102408.81
2022-10-18T16:56:50.163Z,102400.19
2022-10-18T16:59:27.250Z,102405.91
2022-10-18T17:01:54.576Z,102410.88
2022-10-18T17:04:21.853Z,102410.19
2022-10-18T17:06:51.864Z,102416.69
2022-10-18T17:09:18.824Z,102414.03
2022-10-18T17:11:45.857Z,102412.25
2022-10-18T17:14:12.802Z,102417.19
2022-10-18T17:16:40.290Z,102420.22
2022-10-18T17:19:10.476Z,102430.28
2022-10-18T17:21:38.432Z,102427.34
2022-10-18T17:24:06.316Z,102417.78
2022-10-18T17:26:34.172Z,102430.47
2022-10-18T17:29:05.466Z,102431.44
2022-10-18T17:31:33.193Z,102436.59
2022-10-18T17:34:01.790Z,102435.78
2022-10-18T17:36:31.032Z,102436.44
2022-10-18T17:38:58.290Z,102439.59
2022-10-18T17:41:25.414Z,102425.88
2022-10-18T17:43:52.410Z,102444.56
2022-10-18T17:46:19.744Z,102441.38
2022-10-18T17:48:47.326Z,102443.97
2022-10-18T17:51:17.193Z,102446.19
2022-10-18T17:53:44.537Z,102442.25
2022-10-18T17:56:12.551Z,102439.50
2022-10-18T17:58:40.235Z,102433.72
2022-10-18T18:01:19.095Z,102438.53
2022-10-18T18:03:47.843Z,102435.31
2022-10-18T18:06:30.958Z,102440.19
2022-10-18T18:08:59.368Z,102451.81
2022-10-18T18:11:27.184Z,102448.00
2022-10-18T18:13:57.831Z,102451.03
2022-10-18T18:16:27.306Z,102444.56
2022-10-18T18:18:56.631Z,102443.50
2022-10-18T18:21:24.645Z,102447.88
2022-10-18T18:23:51.679Z,102455.28
2022-10-18T18:26:21.222Z,102437.38
2022-10-18T18:28:49.187Z,102456.63
2022-10-18T18:31:23.518Z,102453.13
2022-10-18T18:33:56.110Z,102454.44
2022-10-18T18:36:25.636Z,102454.72
2022-10-18T18:38:56.916Z,102451.13
2022-10-18T18:41:26.655Z,102445.16
2022-10-18T18:44:01.653Z,102442.19
2022-10-18T18:46:33.017Z,102448.22
2022-10-18T18:49:00.401Z,102434.38
2022-10-18T18:51:27.598Z,102432.75
2022-10-18T18:53:54.682Z,102440.38
2022-10-18T18:56:24.412Z,102438.16
2022-10-18T18:58:52.708Z,102442.75
2022-10-18T19:01:23.612Z,102443.63
2022-10-18T19:03:52.345Z,102437.09
2022-10-18T19:06:31.364Z,102431.09
2022-10-18T19:09:02.807Z,102439.75
2022-10-18T19:11:36.737Z,102436.00
2022-10-18T19:14:04.923Z,102431.41
2022-10-18T19:16:37.691Z,102439.28
2022-10-18T19:19:07.484Z,102431.41
2022-10-18T19:21:37.535Z,102436.09
2022-10-18T19:24:05.820Z,102445.78
2022-10-18T19:26:37.733Z,102439.81
2022-10-18T19:29:24.128Z,102427.88
2022-10-18T19:31:53.666Z,102430.59
2022-10-18T19:34:22.129Z,102421.13
2022-10-18T19:36:50.213Z,102441.75
2022-10-18T19:39:20.728Z,102448.00
2022-10-18T19:41:49.722Z,102445.25
2022-10-18T19:44:18.405Z,102440.13
2022-10-18T19:46:45.859Z,102447.44
2022-10-18T19:49:12.885Z,102442.03
2022-10-18T19:51:40.251Z,102436.81
2022-10-18T19:54:08.652Z,102439.81
2022-10-18T19:56:35.779Z,102438.25
2022-10-18T19:59:02.841Z,102436.09
2022-10-18T20:01:30.246Z,102446.38
2022-10-18T20:03:57.548Z,102446.88
2022-10-18T20:06:24.571Z,102445.78
2022-10-18T20:08:51.906Z,102445.78
2022-10-18T20:11:21.904Z,102447.44
2022-10-18T20:13:49.602Z,102442.03
2022-10-18T20:16:19.010Z,102435.06
2022-10-18T20:18:46.663Z,102444.75
2022-10-18T20:21:16.459Z,102443.78
2022-10-18T20:23:44.292Z,102454.06
2022-10-18T20:26:20.562Z,102452.38
2022-10-18T20:28:49.494Z,102456.22
2022-10-18T20:31:18.843Z,102461.03
2022-10-18T20:33:47.233Z,102462.75
2022-10-18T20:36:16.906Z,102470.28
2022-10-18T20:38:46.947Z,102469.25
2022-10-18T20:41:23.868Z,102464.97
2022-10-18T20:43:56.470Z,102458.44
2022-10-18T20:46:24.088Z,102467.91
2022-10-18T20:48:52.169Z,102475.25
2022-10-18T20:51:20.275Z,102470.59
2022-10-18T20:53:47.714Z,102466.81
2022-10-18T20:56:20.532Z,102467.09
2022-10-18T20:58:55.504Z,102477.13
2022-10-18T21:01:25.621Z,102481.25
2022-10-18T21:03:54.339Z,102481.00
2022-10-18T21:06:26.663Z,102467.63
2022-10-18T21:09:05.483Z,102469.00
2022-10-18T21:11:36.499Z,102481.78
2022-10-18T21:14:04.400Z,102487.72
2022-10-18T21:16:33.269Z,102475.81
2022-10-18T21:19:10.194Z,102479.03
2022-10-18T21:21:37.300Z,102476.81
2022-10-18T21:24:07.091Z,102486.09
2022-10-18T21:26:36.099Z,102480.97
2022-10-18T21:29:04.646Z,102473.16
2022-10-18T21:31:36.925Z,102471.84
2022-10-18T21:34:06.282Z,102472.66
2022-10-18T21:36:36.083Z,102463.50
2022-10-18T21:39:05.698Z,102465.44
2022-10-18T21:41:33.076Z,102460.13
2022-10-18T21:44:00.523Z,102453.88
2022-10-18T21:46:27.572Z,102450.63
2022-10-18T21:48:56.260Z,102456.69
2022-10-18T21:51:26.199Z,102441.31
2022-10-18T21:53:55.500Z,102431.66
2022-10-18T21:56:34.420Z,102447.34
2022-10-18T21:59:02.509Z,102436.81
2022-10-18T22:01:35.827Z,102446.84
2022-10-18T22:04:05.798Z,102438.50
2022-10-18T22:09:08.472Z,102427.22
2022-10-18T22:11:41.670Z,102432.09
2022-10-18T22:14:09.181Z,102424.00
2022-10-18T22:16:36.528Z,102424.31
2022-10-18T22:19:05.289Z,102425.38
2022-10-18T22:25:23.360Z,102415.41
2022-10-18T22:27:50.321Z,102411.34
2022-10-18T22:30:17.293Z,102414.06
2022-10-18T22:32:44.387Z,102410.56
2022-10-18T22:35:11.315Z,102406.78
2022-10-18T22:37:38.325Z,102403.28
2022-10-18T22:40:05.885Z,102401.41
2022-10-18T22:45:05.093Z,102399.81
2022-10-18T22:47:32.914Z,102391.72
2022-10-18T22:50:00.122Z,102395.00
2022-10-18T22:52:27.163Z,102393.06
2022-10-18T22:54:54.395Z,102391.19
